Time;durP1;ratioP1;P1;durP2;ratioP2;P2;SDS_P1;SDS_P2;PMS_P1;PMS_P2;Temp;Humidity;BMP_temperature;BMP_pressure;BME280_temperature;BME280_humidity;BME280_pressure;Samples;Min_cycle;Max_cycle;Signal;HPM_P1;HPM_P2
2022/02/16 00:02:25;;;;;;;0.95;0.80;;;12.00;99.90;;;;;;5115424;28;20030;-76
2022/02/16 00:04:50;;;;;;;1.38;0.60;;;12.00;99.90;;;;;;5113595;28;20047;-75
2022/02/16 00:07:16;;;;;;;1.60;0.63;;;12.00;99.90;;;;;;5115008;28;20481;-75
2022/02/16 00:09:42;;;;;;;1.33;0.32;;;12.10;99.90;;;;;;5115261;28;20031;-75
2022/02/16 00:12:08;;;;;;;1.80;0.60;;;12.10;99.90;;;;;;5114872;28;20031;-75
2022/02/16 00:14:34;;;;;;;2.00;0.30;;;12.10;99.90;;;;;;5115478;28;20381;-75
2022/02/16 00:17:00;;;;;;;2.08;0.57;;;12.10;99.90;;;;;;5114843;28;20027;-75
2022/02/16 00:19:25;;;;;;;0.50;0.50;;;12.10;99.90;;;;;;5114848;28;20434;-75
2022/02/16 00:21:52;;;;;;;1.73;0.70;;;12.20;99.90;;;;;;5114752;28;20030;-75
2022/02/16 00:24:18;;;;;;;3.00;0.90;;;12.20;99.90;;;;;;5114716;28;20066;-75
2022/02/16 00:26:44;;;;;;;2.03;0.70;;;12.10;99.90;;;;;;5114919;28;20047;-76
2022/02/16 00:29:11;;;;;;;1.77;0.70;;;12.20;99.90;;;;;;5114599;28;20063;-75
2022/02/16 00:31:37;;;;;;;0.88;0.50;;;12.20;99.90;;;;;;5114814;28;20055;-75
2022/02/16 00:34:03;;;;;;;1.10;0.73;;;12.20;99.90;;;;;;5114547;28;20489;-75
2022/02/16 00:36:29;;;;;;;0.60;0.43;;;12.10;99.90;;;;;;5114479;28;20039;-76
2022/02/16 00:38:55;;;;;;;1.27;0.70;;;12.10;99.90;;;;;;5114496;28;20033;-76
2022/02/16 00:41:20;;;;;;;2.28;1.08;;;12.10;99.90;;;;;;5114654;28;20044;-75
2022/02/16 00:43:46;;;;;;;2.28;0.73;;;12.10;99.90;;;;;;5114626;28;20024;-75
2022/02/16 00:46:12;;;;;;;2.47;0.68;;;12.10;99.90;;;;;;5114296;28;20053;-75
2022/02/16 00:48:38;;;;;;;3.38;0.80;;;12.10;99.90;;;;;;5114782;28;20055;-75
2022/02/16 00:51:04;;;;;;;2.75;1.20;;;12.20;99.90;;;;;;5114442;28;20537;-76
2022/02/16 00:53:30;;;;;;;3.10;0.98;;;12.10;99.90;;;;;;5114466;28;20024;-76
2022/02/16 00:55:55;;;;;;;5.05;1.30;;;12.20;99.90;;;;;;5114018;28;20465;-75
2022/02/16 00:58:21;;;;;;;4.57;1.00;;;12.20;99.90;;;;;;5114130;28;20035;-75
2022/02/16 01:00:48;;;;;;;5.28;1.40;;;12.20;99.90;;;;;;5114591;28;20062;-76
2022/02/16 01:03:13;;;;;;;6.40;1.58;;;12.20;99.90;;;;;;5113831;28;20042;-75
2022/02/16 01:05:39;;;;;;;6.00;1.15;;;12.20;99.90;;;;;;5114344;28;20031;-75
2022/02/16 01:08:09;;;;;;;7.03;1.75;;;12.20;99.90;;;;;;5113980;28;20102;-76
2022/02/16 01:10:36;;;;;;;5.50;1.75;;;12.20;99.90;;;;;;5113896;28;20393;-76
2022/02/16 01:13:03;;;;;;;7.00;1.67;;;12.20;99.90;;;;;;5113858;28;20023;-75
2022/02/16 01:15:28;;;;;;;9.45;2.17;;;12.20;99.90;;;;;;5114107;28;20016;-75
2022/02/16 01:17:54;;;;;;;5.50;1.80;;;12.30;99.90;;;;;;5113824;28;20560;-75
2022/02/16 01:20:20;;;;;;;5.57;1.80;;;12.20;99.90;;;;;;5113769;28;20023;-76
2022/02/16 01:22:46;;;;;;;7.43;2.30;;;12.30;99.90;;;;;;5113762;28;20053;-76
2022/02/16 01:25:12;;;;;;;7.47;1.85;;;12.30;99.90;;;;;;5112846;28;20016;-76
2022/02/16 01:27:38;;;;;;;12.13;2.33;;;12.30;99.90;;;;;;5113743;28;20027;-75
2022/02/16 01:30:05;;;;;;;7.95;2.03;;;12.30;99.90;;;;;;5112398;28;20500;-76
2022/02/16 01:32:31;;;;;;;9.27;2.45;;;12.30;99.90;;;;;;5113774;28;20461;-75
2022/02/16 01:34:57;;;;;;;7.60;1.92;;;12.30;99.90;;;;;;5113580;28;20025;-75
2022/02/16 01:37:22;;;;;;;10.48;2.13;;;12.30;99.90;;;;;;5113598;28;20389;-76
2022/02/16 01:39:48;;;;;;;5.80;1.77;;;12.40;99.90;;;;;;5113857;28;20016;-75
2022/02/16 01:42:16;;;;;;;7.15;2.13;;;12.40;99.90;;;;;;5113541;28;20374;-75
2022/02/16 01:44:41;;;;;;;10.52;2.17;;;12.40;99.90;;;;;;5113824;28;20040;-75
2022/02/16 01:47:07;;;;;;;14.93;3.05;;;12.40;99.90;;;;;;5113499;28;20120;-75
2022/02/16 01:49:34;;;;;;;9.05;2.22;;;12.40;99.90;;;;;;5113464;28;20020;-75
2022/02/16 01:52:00;;;;;;;7.35;2.00;;;12.40;99.90;;;;;;5113370;28;20458;-75
2022/02/16 01:54:26;;;;;;;9.02;2.28;;;12.40;99.90;;;;;;5113341;28;20024;-75
2022/02/16 01:56:53;;;;;;;9.23;2.30;;;12.40;99.90;;;;;;5113483;28;20019;-75
2022/02/16 01:59:20;;;;;;;7.63;1.85;;;12.40;99.90;;;;;;5113390;28;20035;-75
2022/02/16 02:01:47;;;;;;;6.00;1.73;;;12.40;99.90;;;;;;5113286;28;20046;-76
2022/02/16 02:04:15;;;;;;;9.23;2.65;;;12.40;99.90;;;;;;5113172;28;20063;-75
2022/02/16 02:06:41;;;;;;;8.55;1.60;;;12.40;99.90;;;;;;5113357;28;20024;-75
2022/02/16 02:09:07;;;;;;;8.30;1.60;;;12.40;99.90;;;;;;5113910;28;20023;-75
2022/02/16 02:11:32;;;;;;;8.40;1.85;;;12.40;99.90;;;;;;5113248;28;20546;-75
2022/02/16 02:14:01;;;;;;;6.95;1.73;;;12.40;99.90;;;;;;5113883;28;20031;-75
2022/02/16 02:16:27;;;;;;;6.82;1.42;;;12.50;99.90;;;;;;5113270;28;20039;-75
2022/02/16 02:18:53;;;;;;;6.95;1.92;;;12.40;99.90;;;;;;5113502;28;20389;-75
2022/02/16 02:21:20;;;;;;;4.85;1.38;;;12.50;99.90;;;;;;5113198;28;20020;-76
2022/02/16 02:23:47;;;;;;;4.45;1.15;;;12.50;99.90;;;;;;5113173;28;20023;-75
2022/02/16 02:26:13;;;;;;;9.25;1.70;;;12.50;99.90;;;;;;5113158;28;20059;-75
2022/02/16 02:28:38;;;;;;;5.00;1.40;;;12.50;99.90;;;;;;5113134;28;20039;-75
2022/02/16 02:31:05;;;;;;;5.00;1.10;;;12.50;99.90;;;;;;5113012;28;20035;-75
2022/02/16 02:33:30;;;;;;;5.00;1.00;;;12.50;99.90;;;;;;5113073;28;20103;-76
2022/02/16 02:35:56;;;;;;;5.13;1.67;;;12.50;99.90;;;;;;5115281;28;20095;-75
2022/02/16 02:38:23;;;;;;;3.05;1.05;;;12.50;99.90;;;;;;5117099;28;20169;-75
2022/02/16 02:40:57;;;;;;;4.72;1.40;;;12.60;99.90;;;;;;5116738;28;20049;-76
2022/02/16 02:43:25;;;;;;;3.28;1.13;;;12.50;99.90;;;;;;5117285;28;20024;-76
2022/02/16 02:45:52;;;;;;;3.67;1.40;;;12.50;99.90;;;;;;5116932;28;20028;-75
2022/02/16 02:48:21;;;;;;;3.42;1.10;;;12.50;99.90;;;;;;5116614;28;20485;-76
2022/02/16 02:50:47;;;;;;;4.22;1.27;;;12.50;99.90;;;;;;5115207;28;20023;-75
2022/02/16 02:53:13;;;;;;;8.02;1.52;;;12.50;99.90;;;;;;5116504;28;20028;-75
2022/02/16 02:55:39;;;;;;;6.10;1.48;;;12.60;99.90;;;;;;5116959;28;20023;-75
2022/02/16 02:58:05;;;;;;;4.32;1.00;;;12.60;99.90;;;;;;5116941;28;20091;-76
2022/02/16 03:00:31;;;;;;;3.67;0.90;;;12.60;99.90;;;;;;5116365;28;20129;-75
2022/02/16 03:02:57;;;;;;;6.47;1.48;;;12.60;99.90;;;;;;5116314;28;20555;-75
2022/02/16 03:05:22;;;;;;;5.03;1.23;;;12.60;99.90;;;;;;5115836;28;20118;-75
2022/02/16 03:07:48;;;;;;;4.82;0.90;;;12.60;99.90;;;;;;5116254;28;20026;-75
2022/02/16 03:10:14;;;;;;;3.75;0.80;;;12.60;99.90;;;;;;5116374;28;20481;-76
2022/02/16 03:12:39;;;;;;;3.00;0.93;;;12.60;99.90;;;;;;5116108;28;20016;-75
2022/02/16 03:15:06;;;;;;;4.88;0.95;;;12.60;99.90;;;;;;5116333;28;20020;-75
2022/02/16 03:17:31;;;;;;;5.65;1.33;;;12.60;99.90;;;;;;5116643;28;20023;-76
2022/02/16 03:19:57;;;;;;;4.95;1.13;;;12.60;99.90;;;;;;5114729;28;20421;-76
2022/02/16 03:22:23;;;;;;;7.80;1.50;;;12.60;99.90;;;;;;5115925;28;20074;-75
2022/02/16 03:24:49;;;;;;;5.10;1.20;;;12.60;99.90;;;;;;5115866;28;20062;-75
2022/02/16 03:27:14;;;;;;;7.10;1.13;;;12.60;99.90;;;;;;5115841;28;20031;-75
2022/02/16 03:29:40;;;;;;;9.88;2.10;;;12.60;99.90;;;;;;5115797;28;20027;-76
2022/02/16 03:32:06;;;;;;;9.27;1.73;;;12.50;99.90;;;;;;5115735;28;20153;-75
2022/02/16 03:34:32;;;;;;;5.15;1.20;;;12.50;99.90;;;;;;5115753;28;20023;-75
2022/02/16 03:36:58;;;;;;;4.05;1.33;;;12.50;99.90;;;;;;5115628;28;20016;-75
2022/02/16 03:39:23;;;;;;;7.45;1.52;;;12.50;99.90;;;;;;5115632;28;20020;-75
2022/02/16 03:41:50;;;;;;;7.80;1.75;;;12.50;99.90;;;;;;5115890;28;20396;-76
2022/02/16 03:44:16;;;;;;;8.23;1.58;;;12.50;99.90;;;;;;5115473;28;20024;-75
2022/02/16 03:46:43;;;;;;;6.82;1.90;;;12.50;99.90;;;;;;5114779;28;20026;-75
2022/02/16 03:49:09;;;;;;;10.07;1.50;;;12.50;99.90;;;;;;5115264;28;20030;-75
2022/02/16 03:51:34;;;;;;;4.25;1.30;;;12.50;99.90;;;;;;5115333;28;20098;-75
2022/02/16 03:54:00;;;;;;;6.45;1.70;;;12.50;99.90;;;;;;5115283;28;20537;-76
2022/02/16 03:56:26;;;;;;;6.95;1.27;;;12.50;99.90;;;;;;5115548;28;20020;-75
2022/02/16 03:58:51;;;;;;;5.22;1.77;;;12.50;99.90;;;;;;5115275;28;20127;-75
2022/02/16 04:01:17;;;;;;;6.60;1.60;;;12.50;99.90;;;;;;5115213;28;20103;-75
2022/02/16 04:03:43;;;;;;;6.60;1.33;;;12.40;99.90;;;;;;5115133;28;20512;-76
2022/02/16 04:06:09;;;;;;;6.10;1.33;;;12.50;99.90;;;;;;5115159;28;20554;-75
2022/02/16 04:08:35;;;;;;;6.78;2.67;;;12.40;99.90;;;;;;5115327;28;20604;-75
2022/02/16 04:11:00;;;;;;;4.57;1.48;;;12.50;99.90;;;;;;5114954;28;20074;-75
2022/02/16 04:13:26;;;;;;;4.45;1.50;;;12.50;99.90;;;;;;5114972;28;20504;-76
2022/02/16 04:15:52;;;;;;;5.13;1.67;;;12.50;99.90;;;;;;5114891;28;20126;-75
2022/02/16 04:18:17;;;;;;;6.88;1.50;;;12.50;99.90;;;;;;5114827;28;20023;-75
2022/02/16 04:20:43;;;;;;;5.75;1.08;;;12.40;99.90;;;;;;5115073;28;20024;-75
2022/02/16 04:23:09;;;;;;;6.05;1.20;;;12.50;99.90;;;;;;5114732;28;20041;-75
2022/02/16 04:25:36;;;;;;;9.40;1.30;;;12.50;99.90;;;;;;5114744;28;20488;-75
2022/02/16 04:28:04;;;;;;;6.25;1.55;;;12.50;99.90;;;;;;5114679;28;20031;-75
2022/02/16 04:30:31;;;;;;;7.28;1.50;;;12.50;99.90;;;;;;5114528;28;20099;-76
2022/02/16 04:32:57;;;;;;;4.72;1.20;;;12.50;99.90;;;;;;5114565;28;20024;-76
2022/02/16 04:35:22;;;;;;;5.15;1.35;;;12.50;99.90;;;;;;5114495;28;20551;-75
2022/02/16 04:37:48;;;;;;;5.32;1.42;;;12.50;99.90;;;;;;5114483;28;20058;-75
2022/02/16 04:40:15;;;;;;;8.55;1.70;;;12.50;99.90;;;;;;5114694;28;20076;-76
2022/02/16 04:42:40;;;;;;;3.78;1.25;;;12.50;99.90;;;;;;5114391;28;20370;-76
2022/02/16 04:45:06;;;;;;;5.30;1.45;;;12.50;99.90;;;;;;5114321;28;20034;-76
2022/02/16 04:47:32;;;;;;;5.28;1.45;;;12.50;99.90;;;;;;5114865;28;20015;-75
2022/02/16 04:49:58;;;;;;;8.48;1.38;;;12.50;99.90;;;;;;5114523;28;20027;-75
2022/02/16 04:52:34;;;;;;;7.85;1.75;;;12.50;99.90;;;;;;5114118;28;20075;-75
2022/02/16 04:55:10;;;;;;;6.90;1.83;;;12.50;99.90;;;;;;5114160;28;20015;-76
2022/02/16 04:57:36;;;;;;;6.95;1.13;;;12.60;99.90;;;;;;5114118;28;20024;-75
2022/02/16 05:00:04;;;;;;;10.50;2.00;;;12.60;99.90;;;;;;5113998;28;20443;-75
2022/02/16 05:02:30;;;;;;;6.05;1.48;;;12.60;99.90;;;;;;5114039;28;20030;-74
2022/02/16 05:04:56;;;;;;;8.70;1.83;;;12.50;99.90;;;;;;5113895;28;20043;-75
2022/02/16 05:07:22;;;;;;;11.50;4.70;;;12.50;99.90;;;;;;5113961;28;20057;-75
2022/02/16 05:09:48;;;;;;;9.55;1.75;;;12.50;99.90;;;;;;5113984;28;20072;-75
2022/02/16 05:12:15;;;;;;;6.53;1.80;;;12.50;99.90;;;;;;5114128;28;20019;-76
2022/02/16 05:14:41;;;;;;;7.35;2.55;;;12.50;99.90;;;;;;5113861;28;20487;-76
2022/02/16 05:17:07;;;;;;;7.82;1.98;;;12.50;99.90;;;;;;5113842;28;20064;-75
2022/02/16 05:19:32;;;;;;;20.30;10.77;;;12.50;99.90;;;;;;5113782;28;20359;-75
2022/02/16 05:21:58;;;;;;;7.18;2.42;;;12.50;99.90;;;;;;5114060;28;20025;-76
2022/02/16 05:24:24;;;;;;;10.48;2.58;;;12.50;99.90;;;;;;5113782;28;20028;-75
2022/02/16 05:26:51;;;;;;;9.00;1.90;;;12.50;99.90;;;;;;5113733;28;20062;-76
2022/02/16 05:29:17;;;;;;;8.70;2.50;;;12.50;99.90;;;;;;5114008;28;20027;-75
2022/02/16 05:31:43;;;;;;;7.00;1.90;;;12.50;99.90;;;;;;5113859;28;20027;-76
2022/02/16 05:34:09;;;;;;;8.55;2.47;;;12.50;99.90;;;;;;5113920;28;20055;-75
2022/02/16 05:36:35;;;;;;;9.65;3.08;;;12.50;99.90;;;;;;5113597;28;20030;-75
2022/02/16 05:39:01;;;;;;;9.50;2.50;;;12.40;99.90;;;;;;5113612;28;20027;-75
2022/02/16 05:41:28;;;;;;;8.43;2.40;;;12.40;99.90;;;;;;5113775;28;20031;-76
2022/02/16 05:43:53;;;;;;;11.40;2.58;;;12.40;99.90;;;;;;5113609;28;20389;-75
2022/02/16 05:46:19;;;;;;;6.75;2.10;;;12.40;99.90;;;;;;5113554;28;20028;-76
2022/02/16 05:48:45;;;;;;;11.25;2.10;;;12.50;99.90;;;;;;5113810;28;20019;-75
2022/02/16 05:51:11;;;;;;;12.73;2.67;;;12.50;99.90;;;;;;5113388;28;20028;-75
2022/02/16 05:53:36;;;;;;;10.75;2.60;;;12.50;99.90;;;;;;5113484;28;20012;-75
2022/02/16 05:56:02;;;;;;;15.70;2.97;;;12.50;99.90;;;;;;5113364;28;20032;-76
2022/02/16 05:58:30;;;;;;;11.88;2.70;;;12.50;99.90;;;;;;5112100;28;20020;-75
2022/02/16 06:00:55;;;;;;;14.45;2.70;;;12.60;99.90;;;;;;5113431;28;20392;-76
2022/02/16 06:03:21;;;;;;;12.90;3.03;;;12.50;99.90;;;;;;5113433;28;20107;-75
2022/02/16 06:05:47;;;;;;;8.85;2.72;;;12.60;99.90;;;;;;5113687;28;20389;-76
2022/02/16 06:08:12;;;;;;;13.63;3.30;;;12.60;99.90;;;;;;5113292;28;20148;-76
2022/02/16 06:10:38;;;;;;;14.13;2.28;;;12.60;99.90;;;;;;5113148;28;20120;-76
2022/02/16 06:13:04;;;;;;;14.07;2.90;;;12.60;99.90;;;;;;5117569;28;20027;-76
2022/02/16 06:15:29;;;;;;;11.23;3.13;;;12.60;99.90;;;;;;5117258;28;20099;-75
2022/02/16 06:17:55;;;;;;;13.90;3.83;;;12.60;99.90;;;;;;5117212;28;20096;-75
2022/02/16 06:20:23;;;;;;;8.77;2.58;;;12.60;99.90;;;;;;5117367;28;20471;-75
2022/02/16 06:22:49;;;;;;;11.98;2.92;;;12.60;99.90;;;;;;5117101;28;20020;-75
2022/02/16 06:25:15;;;;;;;11.75;4.25;;;12.60;99.90;;;;;;5117052;28;20074;-75
2022/02/16 06:27:40;;;;;;;10.00;2.67;;;12.60;99.90;;;;;;5117034;28;20485;-75
2022/02/16 06:30:08;;;;;;;12.73;2.67;;;12.60;99.90;;;;;;5116960;28;20027;-75
2022/02/16 06:32:34;;;;;;;10.32;2.90;;;12.60;99.90;;;;;;5117415;28;20030;-76
2022/02/16 06:35:00;;;;;;;12.10;4.78;;;12.60;99.90;;;;;;5116953;28;20027;-75
2022/02/16 06:37:26;;;;;;;11.68;3.83;;;12.60;99.90;;;;;;5116836;28;20023;-76
2022/02/16 06:39:52;;;;;;;10.93;3.13;;;12.70;99.90;;;;;;5116772;28;20020;-76
2022/02/16 06:42:18;;;;;;;12.82;2.50;;;12.60;99.90;;;;;;5116751;28;20024;-75
2022/02/16 06:44:43;;;;;;;10.48;2.72;;;12.60;99.90;;;;;;5116672;28;20028;-75
2022/02/16 06:47:09;;;;;;;8.48;2.13;;;12.70;99.90;;;;;;5116669;28;20023;-75
2022/02/16 06:49:35;;;;;;;9.88;2.33;;;12.70;99.90;;;;;;5116600;27;20168;-76
2022/02/16 06:52:01;;;;;;;7.80;2.85;;;12.60;99.90;;;;;;5116796;28;20031;-75
2022/02/16 06:54:27;;;;;;;6.97;1.92;;;12.60;99.90;;;;;;5116975;28;20021;-75
2022/02/16 06:56:53;;;;;;;7.53;2.10;;;12.60;99.90;;;;;;5116994;28;20028;-76
2022/02/16 06:59:18;;;;;;;7.75;2.92;;;12.60;99.90;;;;;;5116360;28;20023;-76
2022/02/16 07:01:44;;;;;;;10.10;2.63;;;12.70;99.90;;;;;;5115048;28;20118;-75
2022/02/16 07:04:10;;;;;;;9.98;2.50;;;12.70;99.90;;;;;;5116247;28;20051;-75
2022/02/16 07:06:35;;;;;;;4.35;1.83;;;12.70;99.90;;;;;;5116250;28;20374;-75
2022/02/16 07:09:02;;;;;;;4.60;2.08;;;12.70;99.90;;;;;;5116225;28;20130;-75
2022/02/16 07:11:29;;;;;;;6.82;1.65;;;12.70;99.90;;;;;;5116148;28;20023;-75
2022/02/16 07:13:55;;;;;;;6.43;1.63;;;12.70;99.90;;;;;;5116164;28;20020;-76
2022/02/16 07:16:21;;;;;;;5.32;1.95;;;12.70;99.90;;;;;;5116647;28;20020;-75
2022/02/16 07:18:46;;;;;;;3.35;1.45;;;12.70;99.90;;;;;;5116301;28;20035;-75
2022/02/16 07:21:12;;;;;;;5.95;1.80;;;12.70;99.90;;;;;;5115613;28;20027;-76
2022/02/16 07:23:38;;;;;;;2.33;1.15;;;12.70;99.90;;;;;;5113708;28;20481;-75
2022/02/16 07:26:05;;;;;;;3.55;1.50;;;12.70;99.90;;;;;;5115912;28;20027;-76
2022/02/16 07:28:31;;;;;;;5.28;1.17;;;12.70;99.90;;;;;;5115893;28;20472;-75
2022/02/16 07:30:57;;;;;;;4.22;1.50;;;12.70;99.90;;;;;;5115995;28;20024;-76
2022/02/16 07:33:23;;;;;;;3.53;1.38;;;12.70;99.90;;;;;;5115780;28;20015;-77
2022/02/16 07:35:49;;;;;;;3.90;1.90;;;12.70;99.90;;;;;;5116243;28;20031;-78
2022/02/16 07:38:15;;;;;;;7.25;2.38;;;12.70;99.90;;;;;;5115977;28;20484;-78
2022/02/16 07:40:40;;;;;;;4.80;2.25;;;12.80;99.90;;;;;;5115932;28;20035;-77
2022/02/16 07:43:07;;;;;;;5.60;2.60;;;12.80;99.90;;;;;;5115555;28;20012;-77
2022/02/16 07:45:32;;;;;;;10.30;5.55;;;12.80;99.90;;;;;;5115568;28;20051;-76
2022/02/16 07:48:00;;;;;;;8.88;4.97;;;12.80;99.90;;;;;;5115425;28;20043;-77
2022/02/16 07:50:26;;;;;;;5.95;2.78;;;12.80;99.90;;;;;;5115944;28;20073;-77
2022/02/16 07:52:52;;;;;;;5.60;3.10;;;12.80;99.90;;;;;;5114113;28;20016;-77
2022/02/16 07:55:18;;;;;;;7.63;2.95;;;12.80;99.90;;;;;;5115356;28;20026;-77
2022/02/16 07:57:43;;;;;;;6.65;2.70;;;12.80;99.90;;;;;;5115541;28;20023;-78
2022/02/16 08:00:10;;;;;;;4.43;2.42;;;12.80;99.90;;;;;;5115254;28;20019;-77
2022/02/16 08:02:35;;;;;;;6.63;2.42;;;12.80;99.90;;;;;;5115733;28;20103;-77
2022/02/16 08:05:02;;;;;;;3.60;2.25;;;12.80;99.90;;;;;;5114974;28;20075;-77
2022/02/16 08:07:29;;;;;;;4.85;1.83;;;12.80;99.90;;;;;;5115390;28;20035;-78
2022/02/16 08:09:54;;;;;;;4.72;2.50;;;12.90;99.90;;;;;;5115326;28;20108;-78
2022/02/16 08:12:20;;;;;;;7.28;3.83;;;12.80;99.90;;;;;;5114960;28;20095;-76
2022/02/16 08:14:46;;;;;;;4.75;2.33;;;12.90;99.90;;;;;;5114952;28;20483;-77
2022/02/16 08:17:12;;;;;;;2.90;1.80;;;12.90;99.90;;;;;;5114894;28;20023;-77
2022/02/16 08:19:38;;;;;;;4.13;1.70;;;12.90;99.90;;;;;;5114835;28;20019;-77
2022/02/16 08:22:03;;;;;;;2.50;1.60;;;12.90;99.90;;;;;;5115073;28;20054;-78
2022/02/16 08:24:29;;;;;;;4.32;1.42;;;12.90;99.90;;;;;;5114738;28;20417;-78
2022/02/16 08:26:55;;;;;;;6.30;2.25;;;12.90;99.90;;;;;;5113394;28;20501;-78
2022/02/16 08:29:24;;;;;;;4.43;2.17;;;12.90;99.90;;;;;;5114700;28;20052;-78
2022/02/16 08:31:51;;;;;;;3.25;1.83;;;13.00;99.90;;;;;;5114604;28;20039;-77
2022/02/16 08:34:17;;;;;;;3.53;2.00;;;13.00;99.90;;;;;;5114183;28;20069;-77
2022/02/16 08:36:42;;;;;;;5.18;1.70;;;13.00;99.90;;;;;;5114521;28;20023;-77
2022/02/16 08:39:08;;;;;;;3.97;2.15;;;13.00;99.90;;;;;;5114741;28;20027;-77
2022/02/16 08:41:34;;;;;;;4.68;2.80;;;13.10;99.90;;;;;;5114450;28;20034;-78
2022/02/16 08:44:00;;;;;;;10.38;5.72;;;13.10;99.90;;;;;;5114378;28;20023;-77
2022/02/16 08:46:25;;;;;;;8.90;5.25;;;13.10;99.90;;;;;;5114370;28;20023;-77
2022/02/16 08:48:51;;;;;;;7.28;4.07;;;13.20;99.90;;;;;;5114258;28;20023;-77
2022/02/16 08:51:17;;;;;;;5.85;3.72;;;13.20;99.90;;;;;;5114216;28;20027;-77
2022/02/16 08:53:43;;;;;;;4.68;2.17;;;13.20;99.90;;;;;;5114771;28;20108;-78
2022/02/16 08:56:08;;;;;;;3.85;2.40;;;13.20;99.90;;;;;;5114092;28;20074;-77
2022/02/16 08:58:34;;;;;;;3.13;1.70;;;13.30;99.90;;;;;;5114183;28;20042;-76
2022/02/16 09:01:00;;;;;;;5.93;3.65;;;13.30;99.90;;;;;;5114641;28;20034;-77
2022/02/16 09:03:27;;;;;;;6.47;2.00;;;13.30;99.90;;;;;;5114143;28;20419;-76
2022/02/16 09:05:53;;;;;;;4.60;1.80;;;13.40;99.90;;;;;;5114024;28;20016;-77
2022/02/16 09:08:19;;;;;;;3.33;1.60;;;13.40;99.90;;;;;;5114545;28;20031;-77
2022/02/16 09:10:45;;;;;;;3.97;1.92;;;13.40;99.90;;;;;;5114121;28;20028;-77
2022/02/16 09:13:11;;;;;;;3.28;1.55;;;13.40;99.90;;;;;;5114165;28;20065;-78
2022/02/16 09:15:37;;;;;;;3.80;1.40;;;13.50;99.90;;;;;;5113929;28;20076;-77
2022/02/16 09:18:05;;;;;;;1.83;0.98;;;13.50;99.90;;;;;;5113852;28;20057;-77
2022/02/16 09:20:31;;;;;;;2.20;1.52;;;13.50;99.90;;;;;;5113846;28;20022;-76
2022/02/16 09:22:56;;;;;;;3.47;1.40;;;13.50;99.90;;;;;;5114052;28;20023;-76
2022/02/16 09:25:22;;;;;;;3.05;1.23;;;13.50;99.90;;;;;;5113781;28;20020;-76
2022/02/16 09:27:48;;;;;;;5.50;2.78;;;13.60;99.90;;;;;;5114001;28;20481;-76
2022/02/16 09:30:13;;;;;;;4.25;1.73;;;13.60;99.90;;;;;;5113999;28;20023;-76
2022/02/16 09:32:39;;;;;;;3.10;1.40;;;13.60;99.90;;;;;;5113606;28;20085;-76
2022/02/16 09:35:05;;;;;;;3.85;2.60;;;13.60;99.90;;;;;;5113627;28;20027;-77
2022/02/16 09:37:31;;;;;;;4.40;3.22;;;13.60;99.90;;;;;;5113589;28;20020;-76
2022/02/16 09:39:57;;;;;;;2.80;1.38;;;13.70;99.90;;;;;;5113631;28;20532;-76
2022/02/16 09:42:23;;;;;;;3.17;1.75;;;13.70;99.90;;;;;;5113566;28;20051;-76
2022/02/16 09:45:03;;;;;;;2.25;1.38;;;13.70;99.90;;;;;;5113604;28;20028;-76
2022/02/16 09:47:30;;;;;;;4.68;2.47;;;13.70;99.90;;;;;;5118172;28;20028;-76
2022/02/16 09:49:57;;;;;;;2.38;1.40;;;13.70;99.90;;;;;;5118343;28;20051;-77
2022/02/16 09:52:24;;;;;;;3.75;2.00;;;13.70;99.90;;;;;;5117653;28;20032;-76
2022/02/16 09:54:50;;;;;;;11.35;5.43;;;13.80;99.90;;;;;;5118208;28;20043;-76
2022/02/16 09:57:16;;;;;;;5.07;2.17;;;13.80;99.90;;;;;;5117954;28;20024;-76
2022/02/16 09:59:42;;;;;;;7.55;4.28;;;13.80;99.90;;;;;;5117651;28;20094;-76
2022/02/16 10:02:12;;;;;;;9.93;4.63;;;13.80;99.90;;;;;;5117582;28;20066;-76
2022/02/16 10:04:42;;;;;;;5.05;2.10;;;13.80;99.90;;;;;;5117472;27;20043;-76
2022/02/16 10:07:21;;;;;;;4.65;2.40;;;13.80;99.90;;;;;;5117501;28;20020;-76
2022/02/16 10:09:46;;;;;;;4.80;1.77;;;13.90;99.90;;;;;;5117399;28;20016;-76
2022/02/16 10:12:12;;;;;;;2.72;1.88;;;13.90;99.90;;;;;;5117563;28;20080;-76
2022/02/16 10:14:39;;;;;;;2.85;2.00;;;14.00;99.90;;;;;;5117340;28;20102;-75
2022/02/16 10:17:27;;;;;;;5.07;2.33;;;14.00;99.90;;;;;;5117276;27;20027;-76
2022/02/16 10:20:01;;;;;;;2.88;1.35;;;14.10;99.90;;;;;;5117861;28;20020;-76
2022/02/16 10:22:31;;;;;;;2.38;1.00;;;14.20;99.90;;;;;;5117474;28;20051;-76
2022/02/16 10:25:13;;;;;;;1.33;1.10;;;14.30;99.90;;;;;;5117169;27;20088;-76
2022/02/16 10:27:39;;;;;;;2.40;1.27;;;14.40;99.90;;;;;;5117356;28;20038;-76
2022/02/16 10:30:16;;;;;;;0.98;0.68;;;14.40;99.90;;;;;;5117020;28;20042;-76
2022/02/16 10:32:42;;;;;;;2.83;1.20;;;14.50;99.90;;;;;;5117234;28;20062;-76
2022/02/16 10:35:08;;;;;;;1.95;1.45;;;14.50;99.90;;;;;;5116952;28;20019;-76
2022/02/16 10:37:39;;;;;;;1.05;0.88;;;14.50;99.90;;;;;;5117162;28;20107;-76
2022/02/16 10:40:14;;;;;;;4.03;1.00;;;14.60;99.90;;;;;;5117376;28;20023;-76
2022/02/16 10:42:57;;;;;;;0.60;0.60;;;14.70;99.90;;;;;;5117083;27;20024;-76
2022/02/16 10:45:26;;;;;;;3.67;2.58;;;14.70;99.90;;;;;;5117042;28;20015;-76
2022/02/16 10:47:56;;;;;;;3.65;2.38;;;14.80;99.90;;;;;;5116687;28;20486;-75
2022/02/16 10:50:24;;;;;;;1.75;1.00;;;14.90;99.90;;;;;;5116992;28;20111;-76
2022/02/16 10:52:53;;;;;;;2.85;1.05;;;14.90;99.90;;;;;;5116800;28;20486;-76
2022/02/16 10:55:34;;;;;;;2.10;1.30;;;14.80;99.90;;;;;;5116495;28;20019;-76
2022/02/16 10:57:59;;;;;;;1.67;0.80;;;14.80;99.90;;;;;;5116494;28;20116;-76
2022/02/16 11:00:30;;;;;;;2.00;1.52;;;14.80;99.90;;;;;;5116727;28;20027;-76
2022/02/16 11:02:55;;;;;;;;;;;14.80;99.90;;;;;;5117168;28;20050;-76
2022/02/16 11:05:22;;;;;;;1.55;0.82;;;14.70;99.90;;;;;;5115933;28;20346;-76
2022/02/16 11:07:48;;;;;;;1.63;1.10;;;14.70;99.90;;;;;;5116314;28;20385;-76
2022/02/16 11:10:14;;;;;;;5.85;3.03;;;14.70;99.90;;;;;;5116508;28;20042;-76
2022/02/16 11:12:40;;;;;;;5.85;2.65;;;14.70;99.90;;;;;;5116158;28;20020;-76
2022/02/16 11:15:07;;;;;;;4.70;1.98;;;14.80;99.90;;;;;;5116124;28;20416;-76
2022/02/16 11:17:33;;;;;;;3.90;1.92;;;14.80;99.90;;;;;;5116639;28;20069;-76
2022/02/16 11:20:20;;;;;;;2.38;1.58;;;14.80;99.90;;;;;;5116355;28;20028;-76
2022/02/16 11:22:48;;;;;;;3.92;1.88;;;14.80;99.90;;;;;;5116039;28;20053;-76
2022/02/16 11:25:30;;;;;;;1.88;1.55;;;14.80;99.90;;;;;;5115949;28;20085;-75
2022/02/16 11:27:56;;;;;;;3.83;1.95;;;14.90;99.90;;;;;;5115909;28;20031;-76
2022/02/16 11:30:29;;;;;;;2.55;1.63;;;14.90;99.90;;;;;;5115850;28;20102;-76
2022/02/16 11:33:08;;;;;;;6.80;3.60;;;15.00;99.90;;;;;;5116078;28;20062;-76
2022/02/16 11:35:45;;;;;;;17.58;10.15;;;15.10;99.90;;;;;;5114264;28;20378;-76
2022/02/16 11:38:15;;;;;;;2.78;1.63;;;15.10;99.90;;;;;;5115772;28;20095;-76
2022/02/16 11:40:46;;;;;;;10.10;6.38;;;15.20;99.90;;;;;;5116009;28;20026;-76
2022/02/16 11:43:14;;;;;;;2.25;0.95;;;15.30;99.90;;;;;;5115682;28;20019;-76
2022/02/16 11:45:51;;;;;;;2.92;1.15;;;15.30;99.90;;;;;;5115631;28;20012;-76
2022/02/16 11:48:40;;;;;;;2.60;0.98;;;15.40;99.90;;;;;;5115858;28;20022;-76
2022/02/16 11:51:25;;;;;;;3.92;1.00;;;15.50;99.90;;;;;;5115725;28;20026;-76
2022/02/16 11:53:52;;;;;;;2.88;1.15;;;15.50;99.90;;;;;;5115358;27;20020;-75
2022/02/16 11:56:20;;;;;;;0.82;0.82;;;15.40;99.90;;;;;;5115431;28;20381;-76
2022/02/16 11:59:11;;;;;;;1.42;0.93;;;15.30;99.90;;;;;;5115576;28;20027;-76
2022/02/16 12:02:15;;;;;;;0.95;0.80;;;15.30;99.90;;;;;;5115101;28;20051;-76
2022/02/16 12:04:52;;;;;;;4.25;2.47;;;15.20;99.90;;;;;;5115106;28;20039;-76
2022/02/16 12:07:30;;;;;;;3.03;1.95;;;15.20;99.90;;;;;;5115665;28;20023;-76
2022/02/16 12:10:13;;;;;;;1.05;0.70;;;15.10;99.90;;;;;;5115237;28;20027;-76
2022/02/16 12:12:40;;;;;;;7.93;5.18;;;15.10;99.90;;;;;;5115283;28;20077;-76
2022/02/16 12:15:07;;;;;;;1.02;0.93;;;15.10;99.90;;;;;;5114975;27;20026;-76
2022/02/16 12:17:33;;;;;;;1.58;0.75;;;15.20;99.90;;;;;;5114971;28;20385;-76
2022/02/16 12:20:01;;;;;;;2.22;1.60;;;15.30;99.90;;;;;;5114947;28;20016;-76
2022/02/16 12:22:27;;;;;;;2.58;1.70;;;15.40;99.90;;;;;;5115416;28;20028;-76
2022/02/16 12:24:52;;;;;;;1.40;1.00;;;15.30;99.90;;;;;;5114807;28;20023;-76
2022/02/16 12:27:21;;;;;;;4.03;1.70;;;15.40;99.90;;;;;;5114718;28;20032;-76
2022/02/16 12:29:48;;;;;;;2.85;1.30;;;15.40;99.90;;;;;;5114755;27;20084;-76
2022/02/16 12:32:19;;;;;;;2.65;1.52;;;15.40;99.90;;;;;;5114598;28;20024;-76
2022/02/16 12:34:46;;;;;;;2.80;1.33;;;15.30;99.90;;;;;;5114909;28;20019;-76
2022/02/16 12:37:15;;;;;;;2.15;0.73;;;15.30;99.90;;;;;;5114560;28;20076;-76
2022/02/16 12:39:51;;;;;;;1.35;0.80;;;15.30;99.90;;;;;;5114519;28;20034;-76
2022/02/16 12:42:17;;;;;;;1.30;1.00;;;15.40;99.90;;;;;;5114831;28;20024;-76
2022/02/16 12:44:43;;;;;;;3.03;0.95;;;15.40;99.90;;;;;;5114452;28;20019;-76
2022/02/16 12:47:10;;;;;;;1.40;0.88;;;15.40;99.90;;;;;;5114314;28;20473;-76